sensor_id;sensor_type;location;lat;lon;timestamp;P1;durP1;ratioP1;P2;durP2;ratioP2
12768;SDS011;6448;48.916;8.990;2023-04-24T00:00:30;0.68;;;0.68;;
12768;SDS011;6448;48.916;8.990;2023-04-24T00:01:31;0.70;;;0.70;;
12768;SDS011;6448;48.916;8.990;2023-04-24T00:02:34;0.60;;;0.60;;
12768;SDS011;6448;48.916;8.990;2023-04-24T00:03:37;0.70;;;0.70;;
12768;SDS011;6448;48.916;8.990;2023-04-24T00:04:41;0.70;;;0.60;;
12768;SDS011;6448;48.916;8.990;2023-04-24T00:05:44;0.90;;;0.60;;
12768;SDS011;6448;48.916;8.990;2023-04-24T00:06:46;0.60;;;0.60;;
12768;SDS011;6448;48.916;8.990;2023-04-24T00:07:49;0.67;;;0.60;;
12768;SDS011;6448;48.916;8.990;2023-04-24T00:08:52;2.40;;;0.70;;
12768;SDS011;6448;48.916;8.990;2023-04-24T00:09:54;0.60;;;0.60;;
12768;SDS011;6448;48.916;8.990;2023-04-24T00:10:56;0.80;;;0.80;;
12768;SDS011;6448;48.916;8.990;2023-04-24T00:11:57;0.77;;;0.60;;
12768;SDS011;6448;48.916;8.990;2023-04-24T00:12:59;0.93;;;0.63;;
12768;SDS011;6448;48.916;8.990;2023-04-24T00:14:00;0.90;;;0.70;;
12768;SDS011;6448;48.916;8.990;2023-04-24T00:15:02;0.60;;;0.60;;
12768;SDS011;6448;48.916;8.990;2023-04-24T00:16:04;1.00;;;0.80;;
12768;SDS011;6448;48.916;8.990;2023-04-24T00:17:06;0.80;;;0.63;;
12768;SDS011;6448;48.916;8.990;2023-04-24T00:18:07;0.90;;;0.77;;
12768;SDS011;6448;48.916;8.990;2023-04-24T00:19:08;0.60;;;0.60;;
12768;SDS011;6448;48.916;8.990;2023-04-24T00:20:12;0.70;;;0.60;;
12768;SDS011;6448;48.916;8.990;2023-04-24T00:21:14;0.52;;;0.52;;
12768;SDS011;6448;48.916;8.990;2023-04-24T00:22:17;0.82;;;0.82;;
12768;SDS011;6448;48.916;8.990;2023-04-24T00:23:20;0.55;;;0.55;;
12768;SDS011;6448;48.916;8.990;2023-04-24T00:24:21;1.27;;;0.77;;
12768;SDS011;6448;48.916;8.990;2023-04-24T00:25:24;0.60;;;0.60;;
12768;SDS011;6448;48.916;8.990;2023-04-24T00:26:25;0.70;;;0.70;;
12768;SDS011;6448;48.916;8.990;2023-04-24T00:27:27;0.65;;;0.65;;
12768;SDS011;6448;48.916;8.990;2023-04-24T00:28:28;0.70;;;0.63;;
12768;SDS011;6448;48.916;8.990;2023-04-24T00:29:30;0.50;;;0.50;;
12768;SDS011;6448;48.916;8.990;2023-04-24T00:30:31;0.68;;;0.68;;
12768;SDS011;6448;48.916;8.990;2023-04-24T00:31:33;0.95;;;0.60;;
12768;SDS011;6448;48.916;8.990;2023-04-24T00:32:34;0.70;;;0.70;;
12768;SDS011;6448;48.916;8.990;2023-04-24T00:33:36;0.60;;;0.60;;
12768;SDS011;6448;48.916;8.990;2023-04-24T00:34:37;1.00;;;0.70;;
12768;SDS011;6448;48.916;8.990;2023-04-24T00:35:39;0.70;;;0.70;;
12768;SDS011;6448;48.916;8.990;2023-04-24T00:36:40;0.50;;;0.50;;
12768;SDS011;6448;48.916;8.990;2023-04-24T00:37:42;0.77;;;0.77;;
12768;SDS011;6448;48.916;8.990;2023-04-24T00:38:43;0.70;;;0.70;;
12768;SDS011;6448;48.916;8.990;2023-04-24T00:39:45;0.95;;;0.70;;
12768;SDS011;6448;48.916;8.990;2023-04-24T00:40:47;0.67;;;0.60;;
12768;SDS011;6448;48.916;8.990;2023-04-24T00:41:50;0.60;;;0.60;;
12768;SDS011;6448;48.916;8.990;2023-04-24T00:42:51;0.60;;;0.60;;
12768;SDS011;6448;48.916;8.990;2023-04-24T00:43:53;0.70;;;0.70;;
12768;SDS011;6448;48.916;8.990;2023-04-24T00:44:54;0.98;;;0.80;;
12768;SDS011;6448;48.916;8.990;2023-04-24T00:45:57;0.68;;;0.68;;
12768;SDS011;6448;48.916;8.990;2023-04-24T00:46:59;0.50;;;0.50;;
12768;SDS011;6448;48.916;8.990;2023-04-24T00:48:02;0.68;;;0.68;;
12768;SDS011;6448;48.916;8.990;2023-04-24T00:49:04;0.70;;;0.70;;
12768;SDS011;6448;48.916;8.990;2023-04-24T00:50:07;0.75;;;0.68;;
12768;SDS011;6448;48.916;8.990;2023-04-24T00:51:08;0.57;;;0.50;;
12768;SDS011;6448;48.916;8.990;2023-04-24T00:52:10;1.23;;;0.90;;
12768;SDS011;6448;48.916;8.990;2023-04-24T00:53:12;0.73;;;0.63;;
12768;SDS011;6448;48.916;8.990;2023-04-24T00:54:14;0.60;;;0.60;;
12768;SDS011;6448;48.916;8.990;2023-04-24T00:55:15;0.90;;;0.80;;
12768;SDS011;6448;48.916;8.990;2023-04-24T00:56:18;0.60;;;0.60;;
12768;SDS011;6448;48.916;8.990;2023-04-24T00:57:20;0.70;;;0.70;;
12768;SDS011;6448;48.916;8.990;2023-04-24T00:58:23;0.80;;;0.75;;
12768;SDS011;6448;48.916;8.990;2023-04-24T00:59:25;0.55;;;0.55;;
12768;SDS011;6448;48.916;8.990;2023-04-24T01:00:26;0.63;;;0.63;;
12768;SDS011;6448;48.916;8.990;2023-04-24T01:01:28;0.52;;;0.50;;
12768;SDS011;6448;48.916;8.990;2023-04-24T01:02:30;0.60;;;0.60;;
12768;SDS011;6448;48.916;8.990;2023-04-24T01:03:34;0.60;;;0.60;;
12768;SDS011;6448;48.916;8.990;2023-04-24T01:04:37;0.70;;;0.70;;
12768;SDS011;6448;48.916;8.990;2023-04-24T01:05:38;0.93;;;0.70;;
12768;SDS011;6448;48.916;8.990;2023-04-24T01:06:40;0.70;;;0.60;;
12768;SDS011;6448;48.916;8.990;2023-04-24T01:07:43;0.98;;;0.68;;
12768;SDS011;6448;48.916;8.990;2023-04-24T01:08:49;0.70;;;0.57;;
12768;SDS011;6448;48.916;8.990;2023-04-24T01:09:50;1.27;;;0.73;;
12768;SDS011;6448;48.916;8.990;2023-04-24T01:10:52;0.65;;;0.60;;
12768;SDS011;6448;48.916;8.990;2023-04-24T01:11:54;0.95;;;0.50;;
12768;SDS011;6448;48.916;8.990;2023-04-24T01:12:56;0.60;;;0.60;;
12768;SDS011;6448;48.916;8.990;2023-04-24T01:13:58;0.50;;;0.50;;
12768;SDS011;6448;48.916;8.990;2023-04-24T01:15:00;0.60;;;0.60;;
12768;SDS011;6448;48.916;8.990;2023-04-24T01:16:01;0.60;;;0.60;;
12768;SDS011;6448;48.916;8.990;2023-04-24T01:17:03;0.60;;;0.60;;
12768;SDS011;6448;48.916;8.990;2023-04-24T01:18:04;1.00;;;0.90;;
12768;SDS011;6448;48.916;8.990;2023-04-24T01:19:06;0.52;;;0.52;;
12768;SDS011;6448;48.916;8.990;2023-04-24T01:20:07;0.65;;;0.60;;
12768;SDS011;6448;48.916;8.990;2023-04-24T01:21:10;0.63;;;0.57;;
12768;SDS011;6448;48.916;8.990;2023-04-24T01:22:16;0.80;;;0.77;;
12768;SDS011;6448;48.916;8.990;2023-04-24T01:23:18;0.80;;;0.70;;
12768;SDS011;6448;48.916;8.990;2023-04-24T01:24:19;0.80;;;0.63;;
12768;SDS011;6448;48.916;8.990;2023-04-24T01:25:21;0.60;;;0.60;;
12768;SDS011;6448;48.916;8.990;2023-04-24T01:26:23;0.70;;;0.60;;
12768;SDS011;6448;48.916;8.990;2023-04-24T01:27:26;0.63;;;0.63;;
12768;SDS011;6448;48.916;8.990;2023-04-24T01:28:27;0.70;;;0.70;;
12768;SDS011;6448;48.916;8.990;2023-04-24T01:29:29;0.82;;;0.70;;
12768;SDS011;6448;48.916;8.990;2023-04-24T01:30:31;0.60;;;0.60;;
12768;SDS011;6448;48.916;8.990;2023-04-24T01:31:33;0.90;;;0.60;;
12768;SDS011;6448;48.916;8.990;2023-04-24T01:32:35;0.50;;;0.50;;
12768;SDS011;6448;48.916;8.990;2023-04-24T01:33:38;0.80;;;0.70;;
12768;SDS011;6448;48.916;8.990;2023-04-24T01:34:39;0.50;;;0.50;;
12768;SDS011;6448;48.916;8.990;2023-04-24T01:35:41;0.60;;;0.60;;
12768;SDS011;6448;48.916;8.990;2023-04-24T01:36:44;0.70;;;0.70;;
12768;SDS011;6448;48.916;8.990;2023-04-24T01:37:47;0.50;;;0.50;;
12768;SDS011;6448;48.916;8.990;2023-04-24T01:38:49;1.27;;;0.63;;
12768;SDS011;6448;48.916;8.990;2023-04-24T01:39:50;0.50;;;0.50;;
12768;SDS011;6448;48.916;8.990;2023-04-24T01:40:52;0.80;;;0.70;;
12768;SDS011;6448;48.916;8.990;2023-04-24T01:41:53;0.70;;;0.60;;
12768;SDS011;6448;48.916;8.990;2023-04-24T01:42:55;0.65;;;0.57;;
12768;SDS011;6448;48.916;8.990;2023-04-24T01:43:57;0.80;;;0.63;;
12768;SDS011;6448;48.916;8.990;2023-04-24T01:44:59;0.60;;;0.60;;
12768;SDS011;6448;48.916;8.990;2023-04-24T01:46:04;0.70;;;0.70;;
12768;SDS011;6448;48.916;8.990;2023-04-24T01:47:09;1.13;;;0.80;;
12768;SDS011;6448;48.916;8.990;2023-04-24T01:48:11;0.60;;;0.60;;
12768;SDS011;6448;48.916;8.990;2023-04-24T01:49:14;0.75;;;0.70;;
12768;SDS011;6448;48.916;8.990;2023-04-24T01:50:15;0.60;;;0.60;;
12768;SDS011;6448;48.916;8.990;2023-04-24T01:51:17;0.70;;;0.70;;
12768;SDS011;6448;48.916;8.990;2023-04-24T01:52:18;0.57;;;0.57;;
12768;SDS011;6448;48.916;8.990;2023-04-24T01:53:22;0.63;;;0.60;;
12768;SDS011;6448;48.916;8.990;2023-04-24T01:54:23;0.50;;;0.50;;
12768;SDS011;6448;48.916;8.990;2023-04-24T01:55:25;1.10;;;0.70;;
12768;SDS011;6448;48.916;8.990;2023-04-24T01:56:26;0.80;;;0.70;;
12768;SDS011;6448;48.916;8.990;2023-04-24T01:57:30;0.77;;;0.77;;
12768;SDS011;6448;48.916;8.990;2023-04-24T01:58:31;0.70;;;0.70;;
12768;SDS011;6448;48.916;8.990;2023-04-24T01:59:33;0.52;;;0.52;;
12768;SDS011;6448;48.916;8.990;2023-04-24T02:00:36;0.60;;;0.60;;
12768;SDS011;6448;48.916;8.990;2023-04-24T02:01:38;0.60;;;0.60;;
12768;SDS011;6448;48.916;8.990;2023-04-24T02:02:40;0.70;;;0.70;;
12768;SDS011;6448;48.916;8.990;2023-04-24T02:03:42;0.50;;;0.50;;
12768;SDS011;6448;48.916;8.990;2023-04-24T02:04:42;0.70;;;0.70;;
12768;SDS011;6448;48.916;8.990;2023-04-24T02:05:44;0.60;;;0.60;;
12768;SDS011;6448;48.916;8.990;2023-04-24T02:06:45;0.60;;;0.60;;
12768;SDS011;6448;48.916;8.990;2023-04-24T02:07:47;0.60;;;0.60;;
12768;SDS011;6448;48.916;8.990;2023-04-24T02:08:49;0.60;;;0.60;;
12768;SDS011;6448;48.916;8.990;2023-04-24T02:09:51;0.75;;;0.75;;
12768;SDS011;6448;48.916;8.990;2023-04-24T02:10:52;0.73;;;0.73;;
12768;SDS011;6448;48.916;8.990;2023-04-24T02:11:54;0.70;;;0.60;;
12768;SDS011;6448;48.916;8.990;2023-04-24T02:12:58;0.90;;;0.80;;
12768;SDS011;6448;48.916;8.990;2023-04-24T02:13:59;0.80;;;0.60;;
12768;SDS011;6448;48.916;8.990;2023-04-24T02:15:01;0.98;;;0.50;;
12768;SDS011;6448;48.916;8.990;2023-04-24T02:16:03;0.60;;;0.57;;
12768;SDS011;6448;48.916;8.990;2023-04-24T02:17:04;0.60;;;0.60;;
12768;SDS011;6448;48.916;8.990;2023-04-24T02:18:06;0.68;;;0.68;;
12768;SDS011;6448;48.916;8.990;2023-04-24T02:19:08;0.68;;;0.65;;
12768;SDS011;6448;48.916;8.990;2023-04-24T02:20:09;0.70;;;0.70;;
12768;SDS011;6448;48.916;8.990;2023-04-24T02:21:12;1.10;;;0.80;;
12768;SDS011;6448;48.916;8.990;2023-04-24T02:22:13;0.60;;;0.60;;
12768;SDS011;6448;48.916;8.990;2023-04-24T02:23:15;0.70;;;0.63;;
12768;SDS011;6448;48.916;8.990;2023-04-24T02:24:17;0.60;;;0.60;;
12768;SDS011;6448;48.916;8.990;2023-04-24T02:25:19;0.50;;;0.50;;
12768;SDS011;6448;48.916;8.990;2023-04-24T02:26:20;0.80;;;0.80;;
12768;SDS011;6448;48.916;8.990;2023-04-24T02:27:22;0.60;;;0.60;;
12768;SDS011;6448;48.916;8.990;2023-04-24T02:28:22;0.80;;;0.50;;
12768;SDS011;6448;48.916;8.990;2023-04-24T02:29:24;0.60;;;0.60;;
12768;SDS011;6448;48.916;8.990;2023-04-24T02:30:25;0.70;;;0.70;;
12768;SDS011;6448;48.916;8.990;2023-04-24T02:31:27;0.60;;;0.60;;
12768;SDS011;6448;48.916;8.990;2023-04-24T02:32:28;0.60;;;0.60;;
12768;SDS011;6448;48.916;8.990;2023-04-24T02:33:30;0.85;;;0.70;;
12768;SDS011;6448;48.916;8.990;2023-04-24T02:34:31;0.80;;;0.77;;
12768;SDS011;6448;48.916;8.990;2023-04-24T02:35:33;1.00;;;0.65;;
12768;SDS011;6448;48.916;8.990;2023-04-24T02:36:34;0.60;;;0.60;;
12768;SDS011;6448;48.916;8.990;2023-04-24T02:37:36;0.55;;;0.55;;
12768;SDS011;6448;48.916;8.990;2023-04-24T02:38:37;0.60;;;0.60;;
12768;SDS011;6448;48.916;8.990;2023-04-24T02:39:40;0.52;;;0.52;;
12768;SDS011;6448;48.916;8.990;2023-04-24T02:40:41;0.70;;;0.67;;
12768;SDS011;6448;48.916;8.990;2023-04-24T02:41:44;0.82;;;0.65;;
12768;SDS011;6448;48.916;8.990;2023-04-24T02:42:44;0.70;;;0.70;;
12768;SDS011;6448;48.916;8.990;2023-04-24T02:43:46;0.75;;;0.75;;
12768;SDS011;6448;48.916;8.990;2023-04-24T02:44:47;1.00;;;0.75;;
12768;SDS011;6448;48.916;8.990;2023-04-24T02:45:51;0.50;;;0.50;;
12768;SDS011;6448;48.916;8.990;2023-04-24T02:46:52;0.50;;;0.50;;
12768;SDS011;6448;48.916;8.990;2023-04-24T02:47:54;0.47;;;0.47;;
12768;SDS011;6448;48.916;8.990;2023-04-24T02:48:54;0.65;;;0.65;;
12768;SDS011;6448;48.916;8.990;2023-04-24T02:49:56;0.60;;;0.60;;
12768;SDS011;6448;48.916;8.990;2023-04-24T02:50:57;0.60;;;0.60;;
12768;SDS011;6448;48.916;8.990;2023-04-24T02:51:59;0.60;;;0.60;;
12768;SDS011;6448;48.916;8.990;2023-04-24T02:53:00;0.70;;;0.70;;
12768;SDS011;6448;48.916;8.990;2023-04-24T02:54:01;0.77;;;0.70;;
12768;SDS011;6448;48.916;8.990;2023-04-24T02:55:04;0.75;;;0.60;;
12768;SDS011;6448;48.916;8.990;2023-04-24T02:56:08;0.70;;;0.70;;
12768;SDS011;6448;48.916;8.990;2023-04-24T02:57:08;0.50;;;0.50;;
12768;SDS011;6448;48.916;8.990;2023-04-24T02:58:13;0.65;;;0.60;;
12768;SDS011;6448;48.916;8.990;2023-04-24T02:59:14;0.52;;;0.52;;
12768;SDS011;6448;48.916;8.990;2023-04-24T03:00:16;0.50;;;0.50;;
12768;SDS011;6448;48.916;8.990;2023-04-24T03:01:17;0.57;;;0.57;;
12768;SDS011;6448;48.916;8.990;2023-04-24T03:02:19;0.70;;;0.70;;
12768;SDS011;6448;48.916;8.990;2023-04-24T03:03:20;0.90;;;0.70;;
12768;SDS011;6448;48.916;8.990;2023-04-24T03:04:22;0.70;;;0.70;;
12768;SDS011;6448;48.916;8.990;2023-04-24T03:05:23;0.77;;;0.60;;
12768;SDS011;6448;48.916;8.990;2023-04-24T03:06:25;0.60;;;0.60;;
12768;SDS011;6448;48.916;8.990;2023-04-24T03:07:27;0.88;;;0.60;;
12768;SDS011;6448;48.916;8.990;2023-04-24T03:08:28;0.60;;;0.50;;
12768;SDS011;6448;48.916;8.990;2023-04-24T03:09:29;0.90;;;0.60;;
12768;SDS011;6448;48.916;8.990;2023-04-24T03:10:32;0.60;;;0.60;;
12768;SDS011;6448;48.916;8.990;2023-04-24T03:11:33;0.70;;;0.52;;
12768;SDS011;6448;48.916;8.990;2023-04-24T03:12:35;0.63;;;0.60;;
12768;SDS011;6448;48.916;8.990;2023-04-24T03:13:36;1.02;;;0.70;;
12768;SDS011;6448;48.916;8.990;2023-04-24T03:14:37;0.60;;;0.60;;
12768;SDS011;6448;48.916;8.990;2023-04-24T03:15:38;0.70;;;0.68;;
12768;SDS011;6448;48.916;8.990;2023-04-24T03:16:40;0.60;;;0.60;;
12768;SDS011;6448;48.916;8.990;2023-04-24T03:17:41;0.60;;;0.60;;
12768;SDS011;6448;48.916;8.990;2023-04-24T03:18:43;0.70;;;0.70;;
12768;SDS011;6448;48.916;8.990;2023-04-24T03:19:44;0.60;;;0.60;;
12768;SDS011;6448;48.916;8.990;2023-04-24T03:20:46;0.60;;;0.60;;
12768;SDS011;6448;48.916;8.990;2023-04-24T03:21:48;0.60;;;0.60;;
12768;SDS011;6448;48.916;8.990;2023-04-24T03:22:50;0.50;;;0.50;;
12768;SDS011;6448;48.916;8.990;2023-04-24T03:23:52;0.45;;;0.45;;
12768;SDS011;6448;48.916;8.990;2023-04-24T03:24:53;0.52;;;0.52;;
12768;SDS011;6448;48.916;8.990;2023-04-24T03:25:56;0.63;;;0.63;;
12768;SDS011;6448;48.916;8.990;2023-04-24T03:26:58;0.85;;;0.65;;
12768;SDS011;6448;48.916;8.990;2023-04-24T03:28:19;0.60;;;0.60;;
12768;SDS011;6448;48.916;8.990;2023-04-24T03:29:28;0.63;;;0.60;;
12768;SDS011;6448;48.916;8.990;2023-04-24T03:30:29;0.60;;;0.60;;
12768;SDS011;6448;48.916;8.990;2023-04-24T03:31:34;0.60;;;0.50;;
12768;SDS011;6448;48.916;8.990;2023-04-24T03:32:35;0.60;;;0.60;;
12768;SDS011;6448;48.916;8.990;2023-04-24T03:33:37;0.70;;;0.60;;
12768;SDS011;6448;48.916;8.990;2023-04-24T03:34:37;0.52;;;0.52;;
12768;SDS011;6448;48.916;8.990;2023-04-24T03:35:41;0.60;;;0.60;;
12768;SDS011;6448;48.916;8.990;2023-04-24T03:36:44;0.60;;;0.60;;
12768;SDS011;6448;48.916;8.990;2023-04-24T03:37:47;0.60;;;0.60;;
12768;SDS011;6448;48.916;8.990;2023-04-24T03:39:07;0.70;;;0.70;;
12768;SDS011;6448;48.916;8.990;2023-04-24T03:40:11;0.60;;;0.60;;
12768;SDS011;6448;48.916;8.990;2023-04-24T03:41:13;0.60;;;0.60;;
12768;SDS011;6448;48.916;8.990;2023-04-24T03:42:20;0.73;;;0.63;;
12768;SDS011;6448;48.916;8.990;2023-04-24T03:43:26;0.60;;;0.60;;
12768;SDS011;6448;48.916;8.990;2023-04-24T03:44:31;0.60;;;0.60;;
12768;SDS011;6448;48.916;8.990;2023-04-24T03:45:31;0.93;;;0.63;;
12768;SDS011;6448;48.916;8.990;2023-04-24T03:46:33;0.60;;;0.60;;
12768;SDS011;6448;48.916;8.990;2023-04-24T03:47:35;0.82;;;0.80;;
12768;SDS011;6448;48.916;8.990;2023-04-24T03:48:39;0.60;;;0.60;;
12768;SDS011;6448;48.916;8.990;2023-04-24T03:49:42;0.75;;;0.50;;
12768;SDS011;6448;48.916;8.990;2023-04-24T03:50:44;0.70;;;0.70;;
12768;SDS011;6448;48.916;8.990;2023-04-24T03:51:46;0.70;;;0.70;;
12768;SDS011;6448;48.916;8.990;2023-04-24T03:52:53;0.80;;;0.73;;
12768;SDS011;6448;48.916;8.990;2023-04-24T03:54:06;0.80;;;0.80;;
12768;SDS011;6448;48.916;8.990;2023-04-24T03:55:12;0.80;;;0.80;;
12768;SDS011;6448;48.916;8.990;2023-04-24T03:56:19;0.82;;;0.63;;
12768;SDS011;6448;48.916;8.990;2023-04-24T03:57:21;1.17;;;0.80;;
12768;SDS011;6448;48.916;8.990;2023-04-24T03:58:35;1.40;;;0.80;;
12768;SDS011;6448;48.916;8.990;2023-04-24T03:59:37;0.93;;;0.80;;
12768;SDS011;6448;48.916;8.990;2023-04-24T04:00:46;1.17;;;0.80;;
12768;SDS011;6448;48.916;8.990;2023-04-24T04:02:08;0.95;;;0.70;;
12768;SDS011;6448;48.916;8.990;2023-04-24T04:03:09;0.70;;;0.70;;
12768;SDS011;6448;48.916;8.990;2023-04-24T04:04:11;1.38;;;0.70;;
12768;SDS011;6448;48.916;8.990;2023-04-24T04:05:13;0.80;;;0.80;;
12768;SDS011;6448;48.916;8.990;2023-04-24T04:06:15;0.80;;;0.80;;
12768;SDS011;6448;48.916;8.990;2023-04-24T04:07:16;0.93;;;0.85;;
12768;SDS011;6448;48.916;8.990;2023-04-24T04:08:18;0.90;;;0.90;;
12768;SDS011;6448;48.916;8.990;2023-04-24T04:09:19;1.43;;;1.30;;
12768;SDS011;6448;48.916;8.990;2023-04-24T04:10:21;2.70;;;2.50;;
12768;SDS011;6448;48.916;8.990;2023-04-24T04:11:23;1.63;;;1.52;;
12768;SDS011;6448;48.916;8.990;2023-04-24T04:12:25;1.30;;;1.20;;
12768;SDS011;6448;48.916;8.990;2023-04-24T04:13:26;1.85;;;1.30;;
12768;SDS011;6448;48.916;8.990;2023-04-24T04:14:28;1.15;;;1.00;;
12768;SDS011;6448;48.916;8.990;2023-04-24T04:15:28;0.60;;;0.60;;
12768;SDS011;6448;48.916;8.990;2023-04-24T04:16:30;0.80;;;0.80;;
12768;SDS011;6448;48.916;8.990;2023-04-24T04:17:36;1.85;;;0.80;;
12768;SDS011;6448;48.916;8.990;2023-04-24T04:18:40;1.00;;;0.90;;
12768;SDS011;6448;48.916;8.990;2023-04-24T04:19:41;0.80;;;0.80;;
12768;SDS011;6448;48.916;8.990;2023-04-24T04:20:43;1.02;;;0.90;;
12768;SDS011;6448;48.916;8.990;2023-04-24T04:21:48;1.00;;;0.90;;
12768;SDS011;6448;48.916;8.990;2023-04-24T04:23:08;1.00;;;0.90;;
12768;SDS011;6448;48.916;8.990;2023-04-24T04:24:26;1.02;;;0.90;;
12768;SDS011;6448;48.916;8.990;2023-04-24T04:25:27;1.10;;;1.00;;
12768;SDS011;6448;48.916;8.990;2023-04-24T04:26:30;1.30;;;0.90;;
12768;SDS011;6448;48.916;8.990;2023-04-24T04:27:36;0.93;;;0.85;;
12768;SDS011;6448;48.916;8.990;2023-04-24T04:28:44;1.02;;;0.90;;
12768;SDS011;6448;48.916;8.990;2023-04-24T04:29:46;1.20;;;1.10;;
12768;SDS011;6448;48.916;8.990;2023-04-24T04:30:49;1.05;;;1.00;;
12768;SDS011;6448;48.916;8.990;2023-04-24T04:31:57;1.45;;;1.35;;
12768;SDS011;6448;48.916;8.990;2023-04-24T04:33:00;1.75;;;1.65;;
12768;SDS011;6448;48.916;8.990;2023-04-24T04:34:04;1.50;;;1.40;;
12768;SDS011;6448;48.916;8.990;2023-04-24T04:35:07;3.05;;;1.25;;
12768;SDS011;6448;48.916;8.990;2023-04-24T04:36:09;1.20;;;1.20;;
12768;SDS011;6448;48.916;8.990;2023-04-24T04:37:15;1.40;;;1.10;;
12768;SDS011;6448;48.916;8.990;2023-04-24T04:38:40;0.90;;;0.90;;
12768;SDS011;6448;48.916;8.990;2023-04-24T04:39:52;0.90;;;0.90;;
12768;SDS011;6448;48.916;8.990;2023-04-24T04:40:57;0.75;;;0.75;;
12768;SDS011;6448;48.916;8.990;2023-04-24T04:42:04;0.80;;;0.80;;
12768;SDS011;6448;48.916;8.990;2023-04-24T04:43:12;0.80;;;0.80;;
12768;SDS011;6448;48.916;8.990;2023-04-24T04:44:21;0.90;;;0.90;;
12768;SDS011;6448;48.916;8.990;2023-04-24T04:45:24;0.88;;;0.88;;
12768;SDS011;6448;48.916;8.990;2023-04-24T04:46:56;0.80;;;0.80;;
12768;SDS011;6448;48.916;8.990;2023-04-24T04:48:05;1.30;;;0.80;;
12768;SDS011;6448;48.916;8.990;2023-04-24T04:49:08;0.80;;;0.80;;
12768;SDS011;6448;48.916;8.990;2023-04-24T04:50:11;0.93;;;0.82;;
12768;SDS011;6448;48.916;8.990;2023-04-24T04:51:12;0.80;;;0.80;;
12768;SDS011;6448;48.916;8.990;2023-04-24T04:52:14;2.00;;;0.77;;
12768;SDS011;6448;48.916;8.990;2023-04-24T04:53:17;0.75;;;0.75;;
12768;SDS011;6448;48.916;8.990;2023-04-24T04:54:19;0.80;;;0.80;;
12768;SDS011;6448;48.916;8.990;2023-04-24T04:55:20;1.17;;;1.08;;
12768;SDS011;6448;48.916;8.990;2023-04-24T04:56:40;1.10;;;1.00;;
12768;SDS011;6448;48.916;8.990;2023-04-24T04:57:45;0.93;;;0.90;;
12768;SDS011;6448;48.916;8.990;2023-04-24T04:58:45;0.90;;;0.90;;
12768;SDS011;6448;48.916;8.990;2023-04-24T04:59:50;0.88;;;0.88;;
12768;SDS011;6448;48.916;8.990;2023-04-24T05:01:04;1.20;;;1.00;;
12768;SDS011;6448;48.916;8.990;2023-04-24T05:02:13;0.90;;;0.90;;
12768;SDS011;6448;48.916;8.990;2023-04-24T05:03:13;0.93;;;0.93;;
12768;SDS011;6448;48.916;8.990;2023-04-24T05:04:15;0.90;;;0.82;;
12768;SDS011;6448;48.916;8.990;2023-04-24T05:05:17;0.80;;;0.80;;
12768;SDS011;6448;48.916;8.990;2023-04-24T05:06:20;1.30;;;1.00;;
12768;SDS011;6448;48.916;8.990;2023-04-24T05:07:21;2.92;;;0.85;;
12768;SDS011;6448;48.916;8.990;2023-04-24T05:08:25;0.80;;;0.80;;
12768;SDS011;6448;48.916;8.990;2023-04-24T05:09:26;0.90;;;0.90;;
12768;SDS011;6448;48.916;8.990;2023-04-24T05:10:34;1.08;;;0.80;;
12768;SDS011;6448;48.916;8.990;2023-04-24T05:11:37;0.80;;;0.80;;
12768;SDS011;6448;48.916;8.990;2023-04-24T05:12:39;1.17;;;0.90;;
12768;SDS011;6448;48.916;8.990;2023-04-24T05:13:42;1.00;;;0.90;;
12768;SDS011;6448;48.916;8.990;2023-04-24T05:14:59;0.90;;;0.90;;
12768;SDS011;6448;48.916;8.990;2023-04-24T05:16:01;1.00;;;0.80;;
12768;SDS011;6448;48.916;8.990;2023-04-24T05:17:03;0.98;;;0.88;;
12768;SDS011;6448;48.916;8.990;2023-04-24T05:18:06;0.85;;;0.85;;
12768;SDS011;6448;48.916;8.990;2023-04-24T05:19:08;0.80;;;0.80;;
12768;SDS011;6448;48.916;8.990;2023-04-24T05:20:14;0.80;;;0.80;;
12768;SDS011;6448;48.916;8.990;2023-04-24T05:21:15;0.90;;;0.90;;
12768;SDS011;6448;48.916;8.990;2023-04-24T05:22:20;0.80;;;0.80;;
12768;SDS011;6448;48.916;8.990;2023-04-24T05:23:25;0.90;;;0.90;;
12768;SDS011;6448;48.916;8.990;2023-04-24T05:24:28;0.90;;;0.90;;
12768;SDS011;6448;48.916;8.990;2023-04-24T05:25:47;0.90;;;0.90;;
12768;SDS011;6448;48.916;8.990;2023-04-24T05:26:49;1.13;;;1.02;;
12768;SDS011;6448;48.916;8.990;2023-04-24T05:27:54;0.90;;;0.90;;
12768;SDS011;6448;48.916;8.990;2023-04-24T05:28:58;1.13;;;1.00;;
12768;SDS011;6448;48.916;8.990;2023-04-24T05:30:00;1.35;;;1.00;;
12768;SDS011;6448;48.916;8.990;2023-04-24T05:31:02;1.15;;;1.00;;
12768;SDS011;6448;48.916;8.990;2023-04-24T05:32:04;1.00;;;0.90;;
12768;SDS011;6448;48.916;8.990;2023-04-24T05:33:06;1.58;;;1.00;;
12768;SDS011;6448;48.916;8.990;2023-04-24T05:34:08;0.80;;;0.80;;
12768;SDS011;6448;48.916;8.990;2023-04-24T05:35:14;1.07;;;1.00;;
12768;SDS011;6448;48.916;8.990;2023-04-24T05:36:15;0.93;;;0.93;;
12768;SDS011;6448;48.916;8.990;2023-04-24T05:37:17;0.90;;;0.90;;
12768;SDS011;6448;48.916;8.990;2023-04-24T05:38:18;1.08;;;0.95;;
12768;SDS011;6448;48.916;8.990;2023-04-24T05:39:19;0.98;;;0.98;;
12768;SDS011;6448;48.916;8.990;2023-04-24T05:40:20;1.10;;;0.90;;
12768;SDS011;6448;48.916;8.990;2023-04-24T05:41:22;0.90;;;0.90;;
12768;SDS011;6448;48.916;8.990;2023-04-24T05:42:23;1.05;;;1.00;;
12768;SDS011;6448;48.916;8.990;2023-04-24T05:43:25;1.55;;;1.08;;
12768;SDS011;6448;48.916;8.990;2023-04-24T05:44:27;1.10;;;1.00;;
12768;SDS011;6448;48.916;8.990;2023-04-24T05:45:29;1.10;;;1.00;;
12768;SDS011;6448;48.916;8.990;2023-04-24T05:46:31;1.10;;;1.00;;
12768;SDS011;6448;48.916;8.990;2023-04-24T05:47:32;0.90;;;0.90;;
12768;SDS011;6448;48.916;8.990;2023-04-24T05:48:34;1.10;;;1.00;;
12768;SDS011;6448;48.916;8.990;2023-04-24T05:49:37;1.10;;;1.05;;
12768;SDS011;6448;48.916;8.990;2023-04-24T05:50:39;0.90;;;0.90;;
12768;SDS011;6448;48.916;8.990;2023-04-24T05:51:40;0.95;;;0.95;;
12768;SDS011;6448;48.916;8.990;2023-04-24T05:52:42;1.10;;;1.00;;
12768;SDS011;6448;48.916;8.990;2023-04-24T05:53:56;0.95;;;0.95;;
12768;SDS011;6448;48.916;8.990;2023-04-24T05:54:59;1.20;;;1.00;;
12768;SDS011;6448;48.916;8.990;2023-04-24T05:56:05;1.00;;;1.00;;
12768;SDS011;6448;48.916;8.990;2023-04-24T05:57:09;1.02;;;0.90;;
12768;SDS011;6448;48.916;8.990;2023-04-24T05:58:22;0.90;;;0.90;;
12768;SDS011;6448;48.916;8.990;2023-04-24T05:59:24;1.02;;;1.00;;
12768;SDS011;6448;48.916;8.990;2023-04-24T06:00:27;1.05;;;1.00;;
12768;SDS011;6448;48.916;8.990;2023-04-24T06:01:36;1.10;;;1.00;;
12768;SDS011;6448;48.916;8.990;2023-04-24T06:02:45;1.47;;;1.00;;
12768;SDS011;6448;48.916;8.990;2023-04-24T06:03:48;0.80;;;0.80;;
12768;SDS011;6448;48.916;8.990;2023-04-24T06:04:48;1.20;;;1.10;;
12768;SDS011;6448;48.916;8.990;2023-04-24T06:05:51;1.40;;;1.10;;
12768;SDS011;6448;48.916;8.990;2023-04-24T06:06:52;1.20;;;1.10;;
12768;SDS011;6448;48.916;8.990;2023-04-24T06:07:56;1.10;;;1.00;;
12768;SDS011;6448;48.916;8.990;2023-04-24T06:09:00;1.00;;;0.95;;
12768;SDS011;6448;48.916;8.990;2023-04-24T06:10:03;1.02;;;0.93;;
12768;SDS011;6448;48.916;8.990;2023-04-24T06:11:12;1.10;;;1.00;;
12768;SDS011;6448;48.916;8.990;2023-04-24T06:12:14;1.10;;;1.00;;
12768;SDS011;6448;48.916;8.990;2023-04-24T06:13:29;1.10;;;1.00;;
12768;SDS011;6448;48.916;8.990;2023-04-24T06:14:49;1.10;;;1.00;;
12768;SDS011;6448;48.916;8.990;2023-04-24T06:15:56;1.00;;;1.00;;
12768;SDS011;6448;48.916;8.990;2023-04-24T06:17:08;1.20;;;1.10;;
12768;SDS011;6448;48.916;8.990;2023-04-24T06:18:13;1.10;;;1.00;;
12768;SDS011;6448;48.916;8.990;2023-04-24T06:19:15;1.05;;;0.95;;
12768;SDS011;6448;48.916;8.990;2023-04-24T06:20:17;1.00;;;1.00;;
12768;SDS011;6448;48.916;8.990;2023-04-24T06:21:18;0.82;;;0.82;;
12768;SDS011;6448;48.916;8.990;2023-04-24T06:22:20;1.13;;;1.00;;
12768;SDS011;6448;48.916;8.990;2023-04-24T06:23:21;0.95;;;0.90;;
12768;SDS011;6448;48.916;8.990;2023-04-24T06:24:25;1.10;;;1.00;;
12768;SDS011;6448;48.916;8.990;2023-04-24T06:25:27;1.00;;;1.00;;
12768;SDS011;6448;48.916;8.990;2023-04-24T06:26:29;1.10;;;1.00;;